<?xml version="1.0" encoding="UTF-8" standalone="no" ?>
<gpx xmlns="http://www.topografix.com/GPX/1/1" xmlns:xsi="http://www.w3.org/2001/XMLSchema-instance" xsi:schemaLocation="http://www.topografix.com/GPX/1/1 http://www.topografix.com/GPX/1/1/gpx.xsd" version="1.1" creator="VisuGPX - https://www.visugpx.com">
  <metadata>
    <name>Sortie Moto</name>
  </metadata>
  <trk>
    <name><![CDATA[Journal actif: 2020-04-16 12:03]]></name>
    <trkseg>
      <trkpt lat="46.06799" lon="6.30765">
        <ele>567.32</ele>
        <time>2020-04-16T10:03:58Z</time>
      </trkpt>
      <trkpt lat="46.06799" lon="6.30765">
        <ele>569.24</ele>
        <time>2020-04-16T10:03:59Z</time>
      </trkpt>
      <trkpt lat="46.06802" lon="6.30779">
        <ele>571.16</ele>
        <time>2020-04-16T10:04:00Z</time>
      </trkpt>
      <trkpt lat="46.06803" lon="6.30786">
        <ele>572.12</ele>
        <time>2020-04-16T10:04:01Z</time>
      </trkpt>
      <trkpt lat="46.06805" lon="6.30795">
        <ele>572.6</ele>
        <time>2020-04-16T10:04:02Z</time>
      </trkpt>
      <trkpt lat="46.06807" lon="6.30806">
        <ele>573.08</ele>
        <time>2020-04-16T10:04:03Z</time>
      </trkpt>
      <trkpt lat="46.06809" lon="6.30819">
        <ele>572.6</ele>
        <time>2020-04-16T10:04:04Z</time>
      </trkpt>
      <trkpt lat="46.06812" lon="6.30877">
        <ele>573.08</ele>
        <time>2020-04-16T10:04:09Z</time>
      </trkpt>
      <trkpt lat="46.06812" lon="6.30903">
        <ele>571.16</ele>
        <time>2020-04-16T10:04:12Z</time>
      </trkpt>
      <trkpt lat="46.06812" lon="6.30911">
        <ele>569.72</ele>
        <time>2020-04-16T10:04:13Z</time>
      </trkpt>
      <trkpt lat="46.06812" lon="6.30916">
        <ele>568.76</ele>
        <time>2020-04-16T10:04:14Z</time>
      </trkpt>
      <trkpt lat="46.06812" lon="6.30916">
        <ele>567.8</ele>
        <time>2020-04-16T10:04:15Z</time>
      </trkpt>
      <trkpt lat="46.06813" lon="6.30932">
        <ele>567.32</ele>
        <time>2020-04-16T10:04:16Z</time>
      </trkpt>
      <trkpt lat="46.06812" lon="6.30935">
        <ele>566.83</ele>
        <time>2020-04-16T10:04:17Z</time>
      </trkpt>
      <trkpt lat="46.0681" lon="6.3094">
        <ele>566.83</ele>
        <time>2020-04-16T10:04:18Z</time>
      </trkpt>
      <trkpt lat="46.06796" lon="6.30979">
        <ele>564.91</ele>
        <time>2020-04-16T10:04:22Z</time>
      </trkpt>
      <trkpt lat="46.06792" lon="6.30991">
        <ele>564.43</ele>
        <time>2020-04-16T10:04:23Z</time>
      </trkpt>
      <trkpt lat="46.06772" lon="6.31061">
        <ele>562.03</ele>
        <time>2020-04-16T10:04:28Z</time>
      </trkpt>
      <trkpt lat="46.06726" lon="6.31203">
        <ele>555.78</ele>
        <time>2020-04-16T10:04:39Z</time>
      </trkpt>
      <trkpt lat="46.06723" lon="6.3121">
        <ele>555.3</ele>
        <time>2020-04-16T10:04:40Z</time>
      </trkpt>
      <trkpt lat="46.06718" lon="6.31253">
        <ele>552.41</ele>
        <time>2020-04-16T10:04:46Z</time>
      </trkpt>
      <trkpt lat="46.06718" lon="6.31253">
        <ele>552.9</ele>
        <time>2020-04-16T10:04:47Z</time>
      </trkpt>
      <trkpt lat="46.06718" lon="6.31253">
        <ele>552.9</ele>
        <time>2020-04-16T10:04:48Z</time>
      </trkpt>
      <trkpt lat="46.06718" lon="6.31257">
        <ele>552.41</ele>
        <time>2020-04-16T10:04:49Z</time>
      </trkpt>
      <trkpt lat="46.06719" lon="6.31261">
        <ele>552.9</ele>
        <time>2020-04-16T10:04:50Z</time>
      </trkpt>
      <trkpt lat="46.0672" lon="6.31268">
        <ele>552.9</ele>
        <time>2020-04-16T10:04:51Z</time>
      </trkpt>
      <trkpt lat="46.0672" lon="6.31268">
        <ele>552.9</ele>
        <time>2020-04-16T10:04:52Z</time>
      </trkpt>
      <trkpt lat="46.06719" lon="6.31271">
        <ele>552.9</ele>
        <time>2020-04-16T10:04:53Z</time>
      </trkpt>
      <trkpt lat="46.0672" lon="6.31268">
        <ele>552.9</ele>
        <time>2020-04-16T10:04:54Z</time>
      </trkpt>
      <trkpt lat="46.0672" lon="6.31268">
        <ele>553.38</ele>
        <time>2020-04-16T10:04:55Z</time>
      </trkpt>
      <trkpt lat="46.06734" lon="6.31259">
        <ele>553.86</ele>
        <time>2020-04-16T10:04:56Z</time>
      </trkpt>
      <trkpt lat="46.06735" lon="6.31256">
        <ele>553.38</ele>
        <time>2020-04-16T10:04:57Z</time>
      </trkpt>
      <trkpt lat="46.06737" lon="6.31254">
        <ele>553.38</ele>
        <time>2020-04-16T10:04:58Z</time>
      </trkpt>
      <trkpt lat="46.06728" lon="6.3127">
        <ele>553.86</ele>
        <time>2020-04-16T10:04:59Z</time>
      </trkpt>
      <trkpt lat="46.06726" lon="6.31246">
        <ele>553.38</ele>
        <time>2020-04-16T10:05:00Z</time>
      </trkpt>
      <trkpt lat="46.06726" lon="6.31246">
        <ele>553.38</ele>
        <time>2020-04-16T10:05:01Z</time>
      </trkpt>
      <trkpt lat="46.06721" lon="6.3125">
        <ele>553.86</ele>
        <time>2020-04-16T10:05:08Z</time>
      </trkpt>
      <trkpt lat="46.0672" lon="6.31268">
        <ele>554.34</ele>
        <time>2020-04-16T10:05:09Z</time>
      </trkpt>
      <trkpt lat="46.0672" lon="6.31268">
        <ele>556.74</ele>
        <time>2020-04-16T10:05:20Z</time>
      </trkpt>
      <trkpt lat="46.06726" lon="6.31246">
        <ele>554.34</ele>
        <time>2020-04-16T10:05:50Z</time>
      </trkpt>
      <trkpt lat="46.06733" lon="6.31253">
        <ele>554.34</ele>
        <time>2020-04-16T10:05:51Z</time>
      </trkpt>
      <trkpt lat="46.06733" lon="6.31253">
        <ele>554.34</ele>
        <time>2020-04-16T10:05:52Z</time>
      </trkpt>
      <trkpt lat="46.06734" lon="6.31255">
        <ele>554.82</ele>
        <time>2020-04-16T10:05:53Z</time>
      </trkpt>
      <trkpt lat="46.06734" lon="6.31255">
        <ele>555.3</ele>
        <time>2020-04-16T10:05:54Z</time>
      </trkpt>
      <trkpt lat="46.06741" lon="6.31248">
        <ele>556.74</ele>
        <time>2020-04-16T10:05:59Z</time>
      </trkpt>
      <trkpt lat="46.06744" lon="6.31244">
        <ele>557.22</ele>
        <time>2020-04-16T10:06:00Z</time>
      </trkpt>
      <trkpt lat="46.06772" lon="6.31203">
        <ele>557.22</ele>
        <time>2020-04-16T10:06:04Z</time>
      </trkpt>
      <trkpt lat="46.06792" lon="6.31174">
        <ele>557.7</ele>
        <time>2020-04-16T10:06:07Z</time>
      </trkpt>
      <trkpt lat="46.0684" lon="6.31103">
        <ele>559.62</ele>
        <time>2020-04-16T10:06:15Z</time>
      </trkpt>
      <trkpt lat="46.06847" lon="6.31093">
        <ele>560.11</ele>
        <time>2020-04-16T10:06:16Z</time>
      </trkpt>
      <trkpt lat="46.06879" lon="6.31043">
        <ele>562.51</ele>
        <time>2020-04-16T10:06:21Z</time>
      </trkpt>
      <trkpt lat="46.06924" lon="6.30978">
        <ele>563.47</ele>
        <time>2020-04-16T10:06:28Z</time>
      </trkpt>
      <trkpt lat="46.06971" lon="6.30909">
        <ele>562.99</ele>
        <time>2020-04-16T10:06:35Z</time>
      </trkpt>
      <trkpt lat="46.06976" lon="6.309">
        <ele>562.99</ele>
        <time>2020-04-16T10:06:36Z</time>
      </trkpt>
      <trkpt lat="46.06982" lon="6.30892">
        <ele>562.51</ele>
        <time>2020-04-16T10:06:37Z</time>
      </trkpt>
      <trkpt lat="46.06987" lon="6.30885">
        <ele>562.51</ele>
        <time>2020-04-16T10:06:38Z</time>
      </trkpt>
      <trkpt lat="46.06991" lon="6.30878">
        <ele>562.51</ele>
        <time>2020-04-16T10:06:39Z</time>
      </trkpt>
      <trkpt lat="46.07009" lon="6.30852">
        <ele>562.03</ele>
        <time>2020-04-16T10:06:44Z</time>
      </trkpt>
      <trkpt lat="46.07014" lon="6.30846">
        <ele>562.03</ele>
        <time>2020-04-16T10:06:45Z</time>
      </trkpt>
      <trkpt lat="46.07069" lon="6.3076">
        <ele>562.99</ele>
        <time>2020-04-16T10:06:53Z</time>
      </trkpt>
      <trkpt lat="46.07117" lon="6.30688">
        <ele>563.47</ele>
        <time>2020-04-16T10:07:00Z</time>
      </trkpt>
      <trkpt lat="46.07123" lon="6.30681">
        <ele>562.99</ele>
        <time>2020-04-16T10:07:01Z</time>
      </trkpt>
      <trkpt lat="46.07138" lon="6.30677">
        <ele>562.51</ele>
        <time>2020-04-16T10:07:03Z</time>
      </trkpt>
      <trkpt lat="46.07142" lon="6.3067">
        <ele>562.51</ele>
        <time>2020-04-16T10:07:04Z</time>
      </trkpt>
      <trkpt lat="46.07143" lon="6.30669">
        <ele>562.51</ele>
        <time>2020-04-16T10:07:05Z</time>
      </trkpt>
      <trkpt lat="46.0714" lon="6.30647">
        <ele>562.51</ele>
        <time>2020-04-16T10:07:06Z</time>
      </trkpt>
      <trkpt lat="46.07145" lon="6.30637">
        <ele>562.51</ele>
        <time>2020-04-16T10:07:07Z</time>
      </trkpt>
      <trkpt lat="46.07151" lon="6.30625">
        <ele>562.51</ele>
        <time>2020-04-16T10:07:08Z</time>
      </trkpt>
      <trkpt lat="46.07158" lon="6.30612">
        <ele>562.51</ele>
        <time>2020-04-16T10:07:09Z</time>
      </trkpt>
      <trkpt lat="46.07226" lon="6.3051">
        <ele>563.47</ele>
        <time>2020-04-16T10:07:17Z</time>
      </trkpt>
      <trkpt lat="46.07319" lon="6.30432">
        <ele>566.83</ele>
        <time>2020-04-16T10:07:26Z</time>
      </trkpt>
      <trkpt lat="46.07445" lon="6.30397">
        <ele>564.43</ele>
        <time>2020-04-16T10:07:35Z</time>
      </trkpt>
      <trkpt lat="46.07544" lon="6.30401">
        <ele>559.62</ele>
        <time>2020-04-16T10:07:43Z</time>
      </trkpt>
      <trkpt lat="46.07576" lon="6.30409">
        <ele>558.18</ele>
        <time>2020-04-16T10:07:47Z</time>
      </trkpt>
      <trkpt lat="46.0758" lon="6.30416">
        <ele>558.18</ele>
        <time>2020-04-16T10:07:48Z</time>
      </trkpt>
      <trkpt lat="46.07591" lon="6.30422">
        <ele>557.7</ele>
        <time>2020-04-16T10:07:49Z</time>
      </trkpt>
      <trkpt lat="46.076" lon="6.30431">
        <ele>557.7</ele>
        <time>2020-04-16T10:07:50Z</time>
      </trkpt>
      <trkpt lat="46.07601" lon="6.30439">
        <ele>557.22</ele>
        <time>2020-04-16T10:07:51Z</time>
      </trkpt>
      <trkpt lat="46.07602" lon="6.30447">
        <ele>556.74</ele>
        <time>2020-04-16T10:07:52Z</time>
      </trkpt>
      <trkpt lat="46.07605" lon="6.30455">
        <ele>555.78</ele>
        <time>2020-04-16T10:07:53Z</time>
      </trkpt>
      <trkpt lat="46.0761" lon="6.30457">
        <ele>555.78</ele>
        <time>2020-04-16T10:07:54Z</time>
      </trkpt>
      <trkpt lat="46.07619" lon="6.30456">
        <ele>554.82</ele>
        <time>2020-04-16T10:07:55Z</time>
      </trkpt>
      <trkpt lat="46.07627" lon="6.30447">
        <ele>554.82</ele>
        <time>2020-04-16T10:07:56Z</time>
      </trkpt>
      <trkpt lat="46.07629" lon="6.30438">
        <ele>554.34</ele>
        <time>2020-04-16T10:07:57Z</time>
      </trkpt>
      <trkpt lat="46.0763" lon="6.30437">
        <ele>554.34</ele>
        <time>2020-04-16T10:07:58Z</time>
      </trkpt>
      <trkpt lat="46.07631" lon="6.30409">
        <ele>554.34</ele>
        <time>2020-04-16T10:07:59Z</time>
      </trkpt>
      <trkpt lat="46.07639" lon="6.30396">
        <ele>554.82</ele>
        <time>2020-04-16T10:08:00Z</time>
      </trkpt>
      <trkpt lat="46.07649" lon="6.30379">
        <ele>554.82</ele>
        <time>2020-04-16T10:08:01Z</time>
      </trkpt>
      <trkpt lat="46.07709" lon="6.30276">
        <ele>556.74</ele>
        <time>2020-04-16T10:08:05Z</time>
      </trkpt>
      <trkpt lat="46.07761" lon="6.3018">
        <ele>562.03</ele>
        <time>2020-04-16T10:08:08Z</time>
      </trkpt>
      <trkpt lat="46.07772" lon="6.30148">
        <ele>563.95</ele>
        <time>2020-04-16T10:08:09Z</time>
      </trkpt>
      <trkpt lat="46.07782" lon="6.30114">
        <ele>565.87</ele>
        <time>2020-04-16T10:08:10Z</time>
      </trkpt>
      <trkpt lat="46.0779" lon="6.30078">
        <ele>567.8</ele>
        <time>2020-04-16T10:08:11Z</time>
      </trkpt>
      <trkpt lat="46.07795" lon="6.30042">
        <ele>569.72</ele>
        <time>2020-04-16T10:08:12Z</time>
      </trkpt>
      <trkpt lat="46.07798" lon="6.30006">
        <ele>571.64</ele>
        <time>2020-04-16T10:08:13Z</time>
      </trkpt>
      <trkpt lat="46.07798" lon="6.2997">
        <ele>573.56</ele>
        <time>2020-04-16T10:08:14Z</time>
      </trkpt>
      <trkpt lat="46.07795" lon="6.29934">
        <ele>575.49</ele>
        <time>2020-04-16T10:08:15Z</time>
      </trkpt>
      <trkpt lat="46.07792" lon="6.29898">
        <ele>577.41</ele>
        <time>2020-04-16T10:08:16Z</time>
      </trkpt>
      <trkpt lat="46.07786" lon="6.29863">
        <ele>579.33</ele>
        <time>2020-04-16T10:08:17Z</time>
      </trkpt>
      <trkpt lat="46.07777" lon="6.29828">
        <ele>581.73</ele>
        <time>2020-04-16T10:08:18Z</time>
      </trkpt>
      <trkpt lat="46.07767" lon="6.29789">
        <ele>583.18</ele>
        <time>2020-04-16T10:08:19Z</time>
      </trkpt>
      <trkpt lat="46.07678" lon="6.29504">
        <ele>600</ele>
        <time>2020-04-16T10:08:27Z</time>
      </trkpt>
      <trkpt lat="46.07608" lon="6.29329">
        <ele>611.06</ele>
        <time>2020-04-16T10:08:33Z</time>
      </trkpt>
      <trkpt lat="46.07519" lon="6.29173">
        <ele>620.67</ele>
        <time>2020-04-16T10:08:39Z</time>
      </trkpt>
      <trkpt lat="46.07506" lon="6.29143">
        <ele>622.11</ele>
        <time>2020-04-16T10:08:40Z</time>
      </trkpt>
      <trkpt lat="46.07493" lon="6.29113">
        <ele>623.55</ele>
        <time>2020-04-16T10:08:41Z</time>
      </trkpt>
      <trkpt lat="46.07485" lon="6.29081">
        <ele>624.99</ele>
        <time>2020-04-16T10:08:42Z</time>
      </trkpt>
      <trkpt lat="46.07477" lon="6.2905">
        <ele>626.44</ele>
        <time>2020-04-16T10:08:43Z</time>
      </trkpt>
      <trkpt lat="46.07461" lon="6.28992">
        <ele>629.32</ele>
        <time>2020-04-16T10:08:45Z</time>
      </trkpt>
      <trkpt lat="46.07449" lon="6.28966">
        <ele>630.28</ele>
        <time>2020-04-16T10:08:46Z</time>
      </trkpt>
      <trkpt lat="46.07434" lon="6.28942">
        <ele>631.24</ele>
        <time>2020-04-16T10:08:47Z</time>
      </trkpt>
      <trkpt lat="46.07419" lon="6.28918">
        <ele>632.2</ele>
        <time>2020-04-16T10:08:48Z</time>
      </trkpt>
      <trkpt lat="46.07402" lon="6.28896">
        <ele>633.17</ele>
        <time>2020-04-16T10:08:49Z</time>
      </trkpt>
      <trkpt lat="46.07383" lon="6.28878">
        <ele>634.13</ele>
        <time>2020-04-16T10:08:50Z</time>
      </trkpt>
      <trkpt lat="46.07362" lon="6.28864">
        <ele>635.57</ele>
        <time>2020-04-16T10:08:51Z</time>
      </trkpt>
      <trkpt lat="46.0734" lon="6.28852">
        <ele>636.53</ele>
        <time>2020-04-16T10:08:52Z</time>
      </trkpt>
      <trkpt lat="46.07317" lon="6.28843">
        <ele>637.49</ele>
        <time>2020-04-16T10:08:53Z</time>
      </trkpt>
      <trkpt lat="46.07294" lon="6.28836">
        <ele>638.93</ele>
        <time>2020-04-16T10:08:54Z</time>
      </trkpt>
      <trkpt lat="46.0727" lon="6.28832">
        <ele>639.89</ele>
        <time>2020-04-16T10:08:55Z</time>
      </trkpt>
      <trkpt lat="46.07245" lon="6.28829">
        <ele>641.34</ele>
        <time>2020-04-16T10:08:56Z</time>
      </trkpt>
      <trkpt lat="46.07221" lon="6.28826">
        <ele>642.78</ele>
        <time>2020-04-16T10:08:57Z</time>
      </trkpt>
      <trkpt lat="46.07023" lon="6.28798">
        <ele>652.87</ele>
        <time>2020-04-16T10:09:05Z</time>
      </trkpt>
      <trkpt lat="46.07001" lon="6.28783">
        <ele>654.31</ele>
        <time>2020-04-16T10:09:06Z</time>
      </trkpt>
      <trkpt lat="46.06981" lon="6.28769">
        <ele>655.76</ele>
        <time>2020-04-16T10:09:07Z</time>
      </trkpt>
      <trkpt lat="46.06812" lon="6.28676">
        <ele>664.89</ele>
        <time>2020-04-16T10:09:15Z</time>
      </trkpt>
      <trkpt lat="46.0679" lon="6.28672">
        <ele>665.85</ele>
        <time>2020-04-16T10:09:16Z</time>
      </trkpt>
      <trkpt lat="46.06768" lon="6.28677">
        <ele>667.29</ele>
        <time>2020-04-16T10:09:17Z</time>
      </trkpt>
      <trkpt lat="46.06745" lon="6.28681">
        <ele>668.25</ele>
        <time>2020-04-16T10:09:18Z</time>
      </trkpt>
      <trkpt lat="46.06724" lon="6.28687">
        <ele>668.73</ele>
        <time>2020-04-16T10:09:19Z</time>
      </trkpt>
      <trkpt lat="46.06706" lon="6.28698">
        <ele>669.7</ele>
        <time>2020-04-16T10:09:20Z</time>
      </trkpt>
      <trkpt lat="46.06688" lon="6.28708">
        <ele>670.66</ele>
        <time>2020-04-16T10:09:21Z</time>
      </trkpt>
      <trkpt lat="46.06671" lon="6.28718">
        <ele>671.62</ele>
        <time>2020-04-16T10:09:22Z</time>
      </trkpt>
      <trkpt lat="46.06523" lon="6.28808">
        <ele>679.31</ele>
        <time>2020-04-16T10:09:32Z</time>
      </trkpt>
      <trkpt lat="46.06479" lon="6.28826">
        <ele>681.71</ele>
        <time>2020-04-16T10:09:36Z</time>
      </trkpt>
      <trkpt lat="46.0647" lon="6.28829">
        <ele>682.67</ele>
        <time>2020-04-16T10:09:37Z</time>
      </trkpt>
      <trkpt lat="46.06462" lon="6.28831">
        <ele>683.15</ele>
        <time>2020-04-16T10:09:38Z</time>
      </trkpt>
      <trkpt lat="46.06452" lon="6.28819">
        <ele>683.15</ele>
        <time>2020-04-16T10:09:39Z</time>
      </trkpt>
      <trkpt lat="46.06446" lon="6.28817">
        <ele>683.63</ele>
        <time>2020-04-16T10:09:40Z</time>
      </trkpt>
      <trkpt lat="46.06438" lon="6.28817">
        <ele>684.12</ele>
        <time>2020-04-16T10:09:41Z</time>
      </trkpt>
      <trkpt lat="46.06432" lon="6.28822">
        <ele>684.12</ele>
        <time>2020-04-16T10:09:42Z</time>
      </trkpt>
      <trkpt lat="46.06428" lon="6.28826">
        <ele>684.6</ele>
        <time>2020-04-16T10:09:43Z</time>
      </trkpt>
      <trkpt lat="46.06416" lon="6.28838">
        <ele>684.6</ele>
        <time>2020-04-16T10:09:44Z</time>
      </trkpt>
      <trkpt lat="46.06405" lon="6.28841">
        <ele>685.08</ele>
        <time>2020-04-16T10:09:45Z</time>
      </trkpt>
      <trkpt lat="46.06391" lon="6.28843">
        <ele>686.04</ele>
        <time>2020-04-16T10:09:46Z</time>
      </trkpt>
      <trkpt lat="46.06375" lon="6.28847">
        <ele>687</ele>
        <time>2020-04-16T10:09:47Z</time>
      </trkpt>
      <trkpt lat="46.06267" lon="6.28875">
        <ele>690.84</ele>
        <time>2020-04-16T10:09:51Z</time>
      </trkpt>
      <trkpt lat="46.06137" lon="6.28919">
        <ele>698.05</ele>
        <time>2020-04-16T10:09:56Z</time>
      </trkpt>
      <trkpt lat="46.05991" lon="6.28967">
        <ele>706.71</ele>
        <time>2020-04-16T10:10:03Z</time>
      </trkpt>
      <trkpt lat="46.058" lon="6.29007">
        <ele>714.88</ele>
        <time>2020-04-16T10:10:12Z</time>
      </trkpt>
      <trkpt lat="46.05774" lon="6.29002">
        <ele>715.84</ele>
        <time>2020-04-16T10:10:13Z</time>
      </trkpt>
      <trkpt lat="46.05748" lon="6.28993">
        <ele>717.28</ele>
        <time>2020-04-16T10:10:14Z</time>
      </trkpt>
      <trkpt lat="46.05723" lon="6.2898">
        <ele>718.24</ele>
        <time>2020-04-16T10:10:15Z</time>
      </trkpt>
      <trkpt lat="46.05698" lon="6.28964">
        <ele>719.68</ele>
        <time>2020-04-16T10:10:16Z</time>
      </trkpt>
      <trkpt lat="46.05675" lon="6.28945">
        <ele>721.61</ele>
        <time>2020-04-16T10:10:17Z</time>
      </trkpt>
      <trkpt lat="46.05653" lon="6.28922">
        <ele>723.05</ele>
        <time>2020-04-16T10:10:18Z</time>
      </trkpt>
      <trkpt lat="46.05635" lon="6.28894">
        <ele>724.01</ele>
        <time>2020-04-16T10:10:19Z</time>
      </trkpt>
      <trkpt lat="46.05618" lon="6.28866">
        <ele>725.45</ele>
        <time>2020-04-16T10:10:20Z</time>
      </trkpt>
      <trkpt lat="46.05602" lon="6.28837">
        <ele>726.89</ele>
        <time>2020-04-16T10:10:21Z</time>
      </trkpt>
      <trkpt lat="46.05589" lon="6.28804">
        <ele>728.34</ele>
        <time>2020-04-16T10:10:22Z</time>
      </trkpt>
      <trkpt lat="46.05575" lon="6.28771">
        <ele>729.78</ele>
        <time>2020-04-16T10:10:23Z</time>
      </trkpt>
      <trkpt lat="46.05487" lon="6.28516">
        <ele>736.99</ele>
        <time>2020-04-16T10:10:31Z</time>
      </trkpt>
      <trkpt lat="46.05354" lon="6.28139">
        <ele>746.12</ele>
        <time>2020-04-16T10:10:44Z</time>
      </trkpt>
      <trkpt lat="46.05231" lon="6.27787">
        <ele>751.41</ele>
        <time>2020-04-16T10:10:56Z</time>
      </trkpt>
      <trkpt lat="46.05151" lon="6.2749">
        <ele>755.73</ele>
        <time>2020-04-16T10:11:06Z</time>
      </trkpt>
      <trkpt lat="46.05123" lon="6.27243">
        <ele>761.5</ele>
        <time>2020-04-16T10:11:14Z</time>
      </trkpt>
      <trkpt lat="46.05134" lon="6.2702">
        <ele>768.23</ele>
        <time>2020-04-16T10:11:21Z</time>
      </trkpt>
      <trkpt lat="46.05146" lon="6.26795">
        <ele>771.6</ele>
        <time>2020-04-16T10:11:28Z</time>
      </trkpt>
      <trkpt lat="46.05143" lon="6.26763">
        <ele>772.08</ele>
        <time>2020-04-16T10:11:29Z</time>
      </trkpt>
      <trkpt lat="46.05138" lon="6.26732">
        <ele>772.08</ele>
        <time>2020-04-16T10:11:30Z</time>
      </trkpt>
      <trkpt lat="46.0513" lon="6.26702">
        <ele>772.56</ele>
        <time>2020-04-16T10:11:31Z</time>
      </trkpt>
      <trkpt lat="46.05123" lon="6.26672">
        <ele>773.04</ele>
        <time>2020-04-16T10:11:32Z</time>
      </trkpt>
      <trkpt lat="46.05113" lon="6.26644">
        <ele>773.52</ele>
        <time>2020-04-16T10:11:33Z</time>
      </trkpt>
      <trkpt lat="46.05102" lon="6.26616">
        <ele>774</ele>
        <time>2020-04-16T10:11:34Z</time>
      </trkpt>
      <trkpt lat="46.05089" lon="6.26592">
        <ele>774.96</ele>
        <time>2020-04-16T10:11:35Z</time>
      </trkpt>
      <trkpt lat="46.05076" lon="6.26568">
        <ele>775.92</ele>
        <time>2020-04-16T10:11:36Z</time>
      </trkpt>
      <trkpt lat="46.0506" lon="6.26546">
        <ele>776.88</ele>
        <time>2020-04-16T10:11:37Z</time>
      </trkpt>
      <trkpt lat="46.05043" lon="6.26527">
        <ele>778.32</ele>
        <time>2020-04-16T10:11:38Z</time>
      </trkpt>
      <trkpt lat="46.05026" lon="6.26509">
        <ele>779.77</ele>
        <time>2020-04-16T10:11:39Z</time>
      </trkpt>
      <trkpt lat="46.05009" lon="6.26492">
        <ele>781.21</ele>
        <time>2020-04-16T10:11:40Z</time>
      </trkpt>
      <trkpt lat="46.04993" lon="6.26477">
        <ele>782.17</ele>
        <time>2020-04-16T10:11:41Z</time>
      </trkpt>
      <trkpt lat="46.049" lon="6.26396">
        <ele>787.94</ele>
        <time>2020-04-16T10:11:47Z</time>
      </trkpt>
      <trkpt lat="46.04885" lon="6.26378">
        <ele>788.9</ele>
        <time>2020-04-16T10:11:48Z</time>
      </trkpt>
      <trkpt lat="46.04871" lon="6.26361">
        <ele>789.86</ele>
        <time>2020-04-16T10:11:49Z</time>
      </trkpt>
      <trkpt lat="46.04858" lon="6.26341">
        <ele>790.82</ele>
        <time>2020-04-16T10:11:50Z</time>
      </trkpt>
      <trkpt lat="46.04846" lon="6.2632">
        <ele>791.78</ele>
        <time>2020-04-16T10:11:51Z</time>
      </trkpt>
      <trkpt lat="46.04716" lon="6.26051">
        <ele>800.44</ele>
        <time>2020-04-16T10:12:03Z</time>
      </trkpt>
      <trkpt lat="46.04561" lon="6.25735">
        <ele>804.28</ele>
        <time>2020-04-16T10:12:17Z</time>
      </trkpt>
      <trkpt lat="46.04495" lon="6.25594">
        <ele>804.76</ele>
        <time>2020-04-16T10:12:21Z</time>
      </trkpt>
      <trkpt lat="46.04459" lon="6.25516">
        <ele>804.76</ele>
        <time>2020-04-16T10:12:23Z</time>
      </trkpt>
      <trkpt lat="46.04445" lon="6.25474">
        <ele>804.76</ele>
        <time>2020-04-16T10:12:24Z</time>
      </trkpt>
      <trkpt lat="46.04433" lon="6.2543">
        <ele>804.28</ele>
        <time>2020-04-16T10:12:25Z</time>
      </trkpt>
      <trkpt lat="46.04369" lon="6.25153">
        <ele>799.47</ele>
        <time>2020-04-16T10:12:32Z</time>
      </trkpt>
      <trkpt lat="46.04345" lon="6.25085">
        <ele>797.55</ele>
        <time>2020-04-16T10:12:34Z</time>
      </trkpt>
      <trkpt lat="46.04329" lon="6.25053">
        <ele>796.59</ele>
        <time>2020-04-16T10:12:35Z</time>
      </trkpt>
      <trkpt lat="46.04313" lon="6.25021">
        <ele>795.15</ele>
        <time>2020-04-16T10:12:36Z</time>
      </trkpt>
      <trkpt lat="46.04295" lon="6.24991">
        <ele>793.71</ele>
        <time>2020-04-16T10:12:37Z</time>
      </trkpt>
      <trkpt lat="46.04274" lon="6.24962">
        <ele>791.78</ele>
        <time>2020-04-16T10:12:38Z</time>
      </trkpt>
      <trkpt lat="46.04134" lon="6.24778">
        <ele>789.86</ele>
        <time>2020-04-16T10:12:45Z</time>
      </trkpt>
      <trkpt lat="46.04115" lon="6.24755">
        <ele>791.3</ele>
        <time>2020-04-16T10:12:46Z</time>
      </trkpt>
      <trkpt lat="46.04092" lon="6.24741">
        <ele>792.26</ele>
        <time>2020-04-16T10:12:47Z</time>
      </trkpt>
      <trkpt lat="46.04069" lon="6.24727">
        <ele>793.22</ele>
        <time>2020-04-16T10:12:48Z</time>
      </trkpt>
      <trkpt lat="46.04044" lon="6.24718">
        <ele>794.19</ele>
        <time>2020-04-16T10:12:49Z</time>
      </trkpt>
      <trkpt lat="46.0402" lon="6.24711">
        <ele>795.15</ele>
        <time>2020-04-16T10:12:50Z</time>
      </trkpt>
      <trkpt lat="46.03972" lon="6.24695">
        <ele>795.63</ele>
        <time>2020-04-16T10:12:52Z</time>
      </trkpt>
      <trkpt lat="46.0395" lon="6.24682">
        <ele>796.11</ele>
        <time>2020-04-16T10:12:53Z</time>
      </trkpt>
      <trkpt lat="46.03928" lon="6.24665">
        <ele>795.63</ele>
        <time>2020-04-16T10:12:54Z</time>
      </trkpt>
      <trkpt lat="46.03908" lon="6.24645">
        <ele>795.63</ele>
        <time>2020-04-16T10:12:55Z</time>
      </trkpt>
      <trkpt lat="46.03888" lon="6.24622">
        <ele>795.15</ele>
        <time>2020-04-16T10:12:56Z</time>
      </trkpt>
      <trkpt lat="46.03871" lon="6.24596">
        <ele>794.67</ele>
        <time>2020-04-16T10:12:57Z</time>
      </trkpt>
      <trkpt lat="46.03856" lon="6.24567">
        <ele>794.19</ele>
        <time>2020-04-16T10:12:58Z</time>
      </trkpt>
      <trkpt lat="46.03844" lon="6.24535">
        <ele>793.22</ele>
        <time>2020-04-16T10:12:59Z</time>
      </trkpt>
      <trkpt lat="46.03835" lon="6.24501">
        <ele>792.26</ele>
        <time>2020-04-16T10:13:00Z</time>
      </trkpt>
      <trkpt lat="46.03827" lon="6.24465">
        <ele>791.3</ele>
        <time>2020-04-16T10:13:01Z</time>
      </trkpt>
      <trkpt lat="46.03818" lon="6.24428">
        <ele>790.34</ele>
        <time>2020-04-16T10:13:02Z</time>
      </trkpt>
      <trkpt lat="46.03779" lon="6.2426">
        <ele>784.09</ele>
        <time>2020-04-16T10:13:07Z</time>
      </trkpt>
      <trkpt lat="46.03768" lon="6.24229">
        <ele>782.65</ele>
        <time>2020-04-16T10:13:08Z</time>
      </trkpt>
      <trkpt lat="46.03755" lon="6.24201">
        <ele>781.21</ele>
        <time>2020-04-16T10:13:09Z</time>
      </trkpt>
      <trkpt lat="46.03738" lon="6.24176">
        <ele>779.77</ele>
        <time>2020-04-16T10:13:10Z</time>
      </trkpt>
      <trkpt lat="46.03721" lon="6.24151">
        <ele>778.32</ele>
        <time>2020-04-16T10:13:11Z</time>
      </trkpt>
      <trkpt lat="46.03705" lon="6.24126">
        <ele>776.88</ele>
        <time>2020-04-16T10:13:12Z</time>
      </trkpt>
      <trkpt lat="46.03686" lon="6.24108">
        <ele>775.44</ele>
        <time>2020-04-16T10:13:13Z</time>
      </trkpt>
      <trkpt lat="46.03667" lon="6.24091">
        <ele>774</ele>
        <time>2020-04-16T10:13:14Z</time>
      </trkpt>
      <trkpt lat="46.03648" lon="6.2408">
        <ele>773.04</ele>
        <time>2020-04-16T10:13:15Z</time>
      </trkpt>
      <trkpt lat="46.03629" lon="6.24074">
        <ele>771.6</ele>
        <time>2020-04-16T10:13:16Z</time>
      </trkpt>
      <trkpt lat="46.03609" lon="6.24072">
        <ele>770.63</ele>
        <time>2020-04-16T10:13:17Z</time>
      </trkpt>
      <trkpt lat="46.03591" lon="6.24072">
        <ele>769.67</ele>
        <time>2020-04-16T10:13:18Z</time>
      </trkpt>
      <trkpt lat="46.03572" lon="6.24078">
        <ele>768.71</ele>
        <time>2020-04-16T10:13:19Z</time>
      </trkpt>
      <trkpt lat="46.03554" lon="6.24084">
        <ele>767.75</ele>
        <time>2020-04-16T10:13:20Z</time>
      </trkpt>
      <trkpt lat="46.03539" lon="6.24097">
        <ele>766.79</ele>
        <time>2020-04-16T10:13:21Z</time>
      </trkpt>
      <trkpt lat="46.03525" lon="6.24112">
        <ele>766.31</ele>
        <time>2020-04-16T10:13:22Z</time>
      </trkpt>
      <trkpt lat="46.03513" lon="6.24132">
        <ele>765.83</ele>
        <time>2020-04-16T10:13:23Z</time>
      </trkpt>
      <trkpt lat="46.03501" lon="6.24152">
        <ele>764.87</ele>
        <time>2020-04-16T10:13:24Z</time>
      </trkpt>
      <trkpt lat="46.03489" lon="6.24172">
        <ele>763.9</ele>
        <time>2020-04-16T10:13:25Z</time>
      </trkpt>
      <trkpt lat="46.03453" lon="6.24227">
        <ele>760.54</ele>
        <time>2020-04-16T10:13:28Z</time>
      </trkpt>
      <trkpt lat="46.0344" lon="6.24241">
        <ele>759.58</ele>
        <time>2020-04-16T10:13:29Z</time>
      </trkpt>
      <trkpt lat="46.03424" lon="6.2425">
        <ele>758.62</ele>
        <time>2020-04-16T10:13:30Z</time>
      </trkpt>
      <trkpt lat="46.03408" lon="6.24258">
        <ele>757.66</ele>
        <time>2020-04-16T10:13:31Z</time>
      </trkpt>
      <trkpt lat="46.03391" lon="6.24263">
        <ele>756.69</ele>
        <time>2020-04-16T10:13:32Z</time>
      </trkpt>
      <trkpt lat="46.03374" lon="6.24261">
        <ele>755.73</ele>
        <time>2020-04-16T10:13:33Z</time>
      </trkpt>
      <trkpt lat="46.03357" lon="6.24256">
        <ele>754.29</ele>
        <time>2020-04-16T10:13:34Z</time>
      </trkpt>
      <trkpt lat="46.03342" lon="6.24247">
        <ele>753.81</ele>
        <time>2020-04-16T10:13:35Z</time>
      </trkpt>
      <trkpt lat="46.03326" lon="6.24234">
        <ele>752.85</ele>
        <time>2020-04-16T10:13:36Z</time>
      </trkpt>
      <trkpt lat="46.03311" lon="6.24221">
        <ele>752.37</ele>
        <time>2020-04-16T10:13:37Z</time>
      </trkpt>
      <trkpt lat="46.03295" lon="6.24205">
        <ele>752.37</ele>
        <time>2020-04-16T10:13:38Z</time>
      </trkpt>
      <trkpt lat="46.03282" lon="6.24184">
        <ele>751.89</ele>
        <time>2020-04-16T10:13:39Z</time>
      </trkpt>
      <trkpt lat="46.03181" lon="6.24049">
        <ele>749.49</ele>
        <time>2020-04-16T10:13:45Z</time>
      </trkpt>
      <trkpt lat="46.03033" lon="6.23887">
        <ele>747.08</ele>
        <time>2020-04-16T10:13:52Z</time>
      </trkpt>
      <trkpt lat="46.03008" lon="6.23874">
        <ele>746.6</ele>
        <time>2020-04-16T10:13:53Z</time>
      </trkpt>
      <trkpt lat="46.02798" lon="6.23786">
        <ele>742.28</ele>
        <time>2020-04-16T10:14:01Z</time>
      </trkpt>
      <trkpt lat="46.026" lon="6.23748">
        <ele>734.1</ele>
        <time>2020-04-16T10:14:09Z</time>
      </trkpt>
      <trkpt lat="46.02555" lon="6.23724">
        <ele>732.18</ele>
        <time>2020-04-16T10:14:11Z</time>
      </trkpt>
      <trkpt lat="46.02534" lon="6.23706">
        <ele>731.22</ele>
        <time>2020-04-16T10:14:12Z</time>
      </trkpt>
      <trkpt lat="46.02515" lon="6.23685">
        <ele>730.26</ele>
        <time>2020-04-16T10:14:13Z</time>
      </trkpt>
      <trkpt lat="46.02498" lon="6.2366">
        <ele>729.78</ele>
        <time>2020-04-16T10:14:14Z</time>
      </trkpt>
      <trkpt lat="46.02482" lon="6.23633">
        <ele>728.82</ele>
        <time>2020-04-16T10:14:15Z</time>
      </trkpt>
      <trkpt lat="46.02467" lon="6.23607">
        <ele>728.34</ele>
        <time>2020-04-16T10:14:16Z</time>
      </trkpt>
      <trkpt lat="46.02454" lon="6.23579">
        <ele>727.37</ele>
        <time>2020-04-16T10:14:17Z</time>
      </trkpt>
      <trkpt lat="46.02418" lon="6.23504">
        <ele>724.49</ele>
        <time>2020-04-16T10:14:20Z</time>
      </trkpt>
      <trkpt lat="46.02405" lon="6.23482">
        <ele>724.01</ele>
        <time>2020-04-16T10:14:21Z</time>
      </trkpt>
      <trkpt lat="46.02389" lon="6.23467">
        <ele>723.05</ele>
        <time>2020-04-16T10:14:22Z</time>
      </trkpt>
      <trkpt lat="46.02374" lon="6.23453">
        <ele>722.09</ele>
        <time>2020-04-16T10:14:23Z</time>
      </trkpt>
      <trkpt lat="46.02359" lon="6.2344">
        <ele>720.65</ele>
        <time>2020-04-16T10:14:24Z</time>
      </trkpt>
      <trkpt lat="46.02293" lon="6.23379">
        <ele>714.88</ele>
        <time>2020-04-16T10:14:29Z</time>
      </trkpt>
      <trkpt lat="46.02282" lon="6.23363">
        <ele>713.44</ele>
        <time>2020-04-16T10:14:30Z</time>
      </trkpt>
      <trkpt lat="46.02271" lon="6.23346">
        <ele>712.47</ele>
        <time>2020-04-16T10:14:31Z</time>
      </trkpt>
      <trkpt lat="46.02262" lon="6.23328">
        <ele>711.99</ele>
        <time>2020-04-16T10:14:32Z</time>
      </trkpt>
      <trkpt lat="46.02254" lon="6.2331">
        <ele>711.03</ele>
        <time>2020-04-16T10:14:33Z</time>
      </trkpt>
      <trkpt lat="46.02136" lon="6.23086">
        <ele>705.75</ele>
        <time>2020-04-16T10:14:44Z</time>
      </trkpt>
      <trkpt lat="46.02121" lon="6.23064">
        <ele>704.78</ele>
        <time>2020-04-16T10:14:45Z</time>
      </trkpt>
      <trkpt lat="46.02085" lon="6.23019">
        <ele>704.3</ele>
        <time>2020-04-16T10:14:47Z</time>
      </trkpt>
      <trkpt lat="46.02071" lon="6.22994">
        <ele>703.82</ele>
        <time>2020-04-16T10:14:48Z</time>
      </trkpt>
      <trkpt lat="46.02059" lon="6.22964">
        <ele>703.34</ele>
        <time>2020-04-16T10:14:49Z</time>
      </trkpt>
      <trkpt lat="46.02048" lon="6.22931">
        <ele>702.86</ele>
        <time>2020-04-16T10:14:50Z</time>
      </trkpt>
      <trkpt lat="46.0204" lon="6.22896">
        <ele>702.38</ele>
        <time>2020-04-16T10:14:51Z</time>
      </trkpt>
      <trkpt lat="46.02034" lon="6.22858">
        <ele>701.9</ele>
        <time>2020-04-16T10:14:52Z</time>
      </trkpt>
      <trkpt lat="46.01991" lon="6.22554">
        <ele>698.05</ele>
        <time>2020-04-16T10:14:59Z</time>
      </trkpt>
      <trkpt lat="46.01933" lon="6.22184">
        <ele>691.81</ele>
        <time>2020-04-16T10:15:08Z</time>
      </trkpt>
      <trkpt lat="46.01862" lon="6.21906">
        <ele>687.48</ele>
        <time>2020-04-16T10:15:15Z</time>
      </trkpt>
      <trkpt lat="46.01735" lon="6.21591">
        <ele>683.15</ele>
        <time>2020-04-16T10:15:24Z</time>
      </trkpt>
      <trkpt lat="46.01704" lon="6.21526">
        <ele>682.67</ele>
        <time>2020-04-16T10:15:26Z</time>
      </trkpt>
      <trkpt lat="46.01686" lon="6.21497">
        <ele>682.19</ele>
        <time>2020-04-16T10:15:27Z</time>
      </trkpt>
      <trkpt lat="46.01666" lon="6.21471">
        <ele>682.19</ele>
        <time>2020-04-16T10:15:28Z</time>
      </trkpt>
      <trkpt lat="46.0149" lon="6.21298">
        <ele>680.75</ele>
        <time>2020-04-16T10:15:36Z</time>
      </trkpt>
      <trkpt lat="46.01429" lon="6.21231">
        <ele>679.31</ele>
        <time>2020-04-16T10:15:39Z</time>
      </trkpt>
      <trkpt lat="46.01409" lon="6.21204">
        <ele>678.83</ele>
        <time>2020-04-16T10:15:40Z</time>
      </trkpt>
      <trkpt lat="46.01392" lon="6.21173">
        <ele>678.35</ele>
        <time>2020-04-16T10:15:41Z</time>
      </trkpt>
      <trkpt lat="46.01268" lon="6.21001">
        <ele>674.5</ele>
        <time>2020-04-16T10:15:47Z</time>
      </trkpt>
      <trkpt lat="46.01095" lon="6.20791">
        <ele>669.7</ele>
        <time>2020-04-16T10:15:54Z</time>
      </trkpt>
      <trkpt lat="46.00958" lon="6.20628">
        <ele>664.89</ele>
        <time>2020-04-16T10:16:01Z</time>
      </trkpt>
      <trkpt lat="46.00879" lon="6.20523">
        <ele>663.45</ele>
        <time>2020-04-16T10:16:06Z</time>
      </trkpt>
      <trkpt lat="46.00869" lon="6.20496">
        <ele>662.97</ele>
        <time>2020-04-16T10:16:07Z</time>
      </trkpt>
      <trkpt lat="46.00858" lon="6.20467">
        <ele>662.01</ele>
        <time>2020-04-16T10:16:08Z</time>
      </trkpt>
      <trkpt lat="46.0085" lon="6.20435">
        <ele>661.52</ele>
        <time>2020-04-16T10:16:09Z</time>
      </trkpt>
      <trkpt lat="46.00841" lon="6.20401">
        <ele>661.04</ele>
        <time>2020-04-16T10:16:10Z</time>
      </trkpt>
      <trkpt lat="46.00766" lon="6.20121">
        <ele>653.83</ele>
        <time>2020-04-16T10:16:17Z</time>
      </trkpt>
      <trkpt lat="46.0069" lon="6.1978">
        <ele>639.89</ele>
        <time>2020-04-16T10:16:25Z</time>
      </trkpt>
      <trkpt lat="46.00678" lon="6.19739">
        <ele>637.97</ele>
        <time>2020-04-16T10:16:26Z</time>
      </trkpt>
      <trkpt lat="46.00612" lon="6.19572">
        <ele>630.28</ele>
        <time>2020-04-16T10:16:31Z</time>
      </trkpt>
      <trkpt lat="46.006" lon="6.1955">
        <ele>628.84</ele>
        <time>2020-04-16T10:16:32Z</time>
      </trkpt>
      <trkpt lat="46.00586" lon="6.19532">
        <ele>627.4</ele>
        <time>2020-04-16T10:16:33Z</time>
      </trkpt>
      <trkpt lat="46.00571" lon="6.19515">
        <ele>626.44</ele>
        <time>2020-04-16T10:16:34Z</time>
      </trkpt>
      <trkpt lat="46.00555" lon="6.195">
        <ele>624.99</ele>
        <time>2020-04-16T10:16:35Z</time>
      </trkpt>
      <trkpt lat="46.0054" lon="6.19486">
        <ele>623.55</ele>
        <time>2020-04-16T10:16:36Z</time>
      </trkpt>
      <trkpt lat="46.00525" lon="6.19472">
        <ele>622.11</ele>
        <time>2020-04-16T10:16:37Z</time>
      </trkpt>
      <trkpt lat="46.00514" lon="6.19454">
        <ele>620.67</ele>
        <time>2020-04-16T10:16:38Z</time>
      </trkpt>
      <trkpt lat="46.00502" lon="6.19435">
        <ele>619.23</ele>
        <time>2020-04-16T10:16:39Z</time>
      </trkpt>
      <trkpt lat="46.00493" lon="6.19418">
        <ele>617.78</ele>
        <time>2020-04-16T10:16:40Z</time>
      </trkpt>
      <trkpt lat="46.00486" lon="6.19399">
        <ele>616.82</ele>
        <time>2020-04-16T10:16:41Z</time>
      </trkpt>
      <trkpt lat="46.0048" lon="6.19382">
        <ele>615.38</ele>
        <time>2020-04-16T10:16:42Z</time>
      </trkpt>
      <trkpt lat="46.0048" lon="6.19363">
        <ele>614.42</ele>
        <time>2020-04-16T10:16:43Z</time>
      </trkpt>
      <trkpt lat="46.00485" lon="6.19346">
        <ele>613.46</ele>
        <time>2020-04-16T10:16:44Z</time>
      </trkpt>
      <trkpt lat="46.00493" lon="6.1933">
        <ele>612.5</ele>
        <time>2020-04-16T10:16:45Z</time>
      </trkpt>
      <trkpt lat="46.00503" lon="6.19317">
        <ele>611.54</ele>
        <time>2020-04-16T10:16:46Z</time>
      </trkpt>
      <trkpt lat="46.00519" lon="6.19307">
        <ele>610.57</ele>
        <time>2020-04-16T10:16:47Z</time>
      </trkpt>
      <trkpt lat="46.00532" lon="6.19309">
        <ele>609.61</ele>
        <time>2020-04-16T10:16:48Z</time>
      </trkpt>
      <trkpt lat="46.00547" lon="6.1932">
        <ele>608.65</ele>
        <time>2020-04-16T10:16:49Z</time>
      </trkpt>
      <trkpt lat="46.00563" lon="6.19334">
        <ele>608.17</ele>
        <time>2020-04-16T10:16:50Z</time>
      </trkpt>
      <trkpt lat="46.00578" lon="6.19354">
        <ele>607.21</ele>
        <time>2020-04-16T10:16:51Z</time>
      </trkpt>
      <trkpt lat="46.00593" lon="6.19379">
        <ele>606.73</ele>
        <time>2020-04-16T10:16:52Z</time>
      </trkpt>
      <trkpt lat="46.00658" lon="6.19516">
        <ele>602.4</ele>
        <time>2020-04-16T10:16:58Z</time>
      </trkpt>
      <trkpt lat="46.00665" lon="6.1953">
        <ele>601.92</ele>
        <time>2020-04-16T10:16:59Z</time>
      </trkpt>
      <trkpt lat="46.00672" lon="6.19537">
        <ele>600.96</ele>
        <time>2020-04-16T10:17:00Z</time>
      </trkpt>
      <trkpt lat="46.00682" lon="6.19541">
        <ele>600.48</ele>
        <time>2020-04-16T10:17:01Z</time>
      </trkpt>
      <trkpt lat="46.00689" lon="6.19538">
        <ele>600</ele>
        <time>2020-04-16T10:17:02Z</time>
      </trkpt>
      <trkpt lat="46.00692" lon="6.1953">
        <ele>599.52</ele>
        <time>2020-04-16T10:17:03Z</time>
      </trkpt>
      <trkpt lat="46.00694" lon="6.19513">
        <ele>599.04</ele>
        <time>2020-04-16T10:17:04Z</time>
      </trkpt>
      <trkpt lat="46.00692" lon="6.19498">
        <ele>598.56</ele>
        <time>2020-04-16T10:17:05Z</time>
      </trkpt>
      <trkpt lat="46.00685" lon="6.19481">
        <ele>598.08</ele>
        <time>2020-04-16T10:17:06Z</time>
      </trkpt>
      <trkpt lat="46.00676" lon="6.19459">
        <ele>597.6</ele>
        <time>2020-04-16T10:17:07Z</time>
      </trkpt>
      <trkpt lat="46.00666" lon="6.19434">
        <ele>596.64</ele>
        <time>2020-04-16T10:17:08Z</time>
      </trkpt>
      <trkpt lat="46.00599" lon="6.19241">
        <ele>590.39</ele>
        <time>2020-04-16T10:17:14Z</time>
      </trkpt>
      <trkpt lat="46.005" lon="6.19003">
        <ele>578.37</ele>
        <time>2020-04-16T10:17:22Z</time>
      </trkpt>
      <trkpt lat="46.00459" lon="6.1894">
        <ele>574.04</ele>
        <time>2020-04-16T10:17:25Z</time>
      </trkpt>
      <trkpt lat="46.00446" lon="6.18923">
        <ele>572.6</ele>
        <time>2020-04-16T10:17:26Z</time>
      </trkpt>
      <trkpt lat="46.00411" lon="6.18886">
        <ele>568.76</ele>
        <time>2020-04-16T10:17:29Z</time>
      </trkpt>
      <trkpt lat="46.00409" lon="6.18867">
        <ele>567.8</ele>
        <time>2020-04-16T10:17:30Z</time>
      </trkpt>
      <trkpt lat="46.00403" lon="6.18855">
        <ele>566.83</ele>
        <time>2020-04-16T10:17:31Z</time>
      </trkpt>
      <trkpt lat="46.00401" lon="6.18846">
        <ele>565.87</ele>
        <time>2020-04-16T10:17:32Z</time>
      </trkpt>
      <trkpt lat="46.00404" lon="6.18835">
        <ele>565.39</ele>
        <time>2020-04-16T10:17:33Z</time>
      </trkpt>
      <trkpt lat="46.0041" lon="6.18827">
        <ele>564.91</ele>
        <time>2020-04-16T10:17:34Z</time>
      </trkpt>
      <trkpt lat="46.00418" lon="6.18821">
        <ele>564.43</ele>
        <time>2020-04-16T10:17:35Z</time>
      </trkpt>
      <trkpt lat="46.0043" lon="6.18821">
        <ele>563.95</ele>
        <time>2020-04-16T10:17:36Z</time>
      </trkpt>
      <trkpt lat="46.00437" lon="6.18826">
        <ele>563.47</ele>
        <time>2020-04-16T10:17:37Z</time>
      </trkpt>
      <trkpt lat="46.00444" lon="6.18844">
        <ele>563.47</ele>
        <time>2020-04-16T10:17:38Z</time>
      </trkpt>
      <trkpt lat="46.00448" lon="6.18858">
        <ele>563.47</ele>
        <time>2020-04-16T10:17:39Z</time>
      </trkpt>
      <trkpt lat="46.00452" lon="6.18884">
        <ele>562.99</ele>
        <time>2020-04-16T10:17:40Z</time>
      </trkpt>
      <trkpt lat="46.00439" lon="6.18897">
        <ele>562.51</ele>
        <time>2020-04-16T10:17:41Z</time>
      </trkpt>
      <trkpt lat="46.00437" lon="6.189">
        <ele>562.51</ele>
        <time>2020-04-16T10:17:42Z</time>
      </trkpt>
      <trkpt lat="46.00426" lon="6.18915">
        <ele>562.51</ele>
        <time>2020-04-16T10:17:43Z</time>
      </trkpt>
      <trkpt lat="46.00415" lon="6.18932">
        <ele>562.03</ele>
        <time>2020-04-16T10:17:44Z</time>
      </trkpt>
      <trkpt lat="46.00404" lon="6.1895">
        <ele>562.03</ele>
        <time>2020-04-16T10:17:45Z</time>
      </trkpt>
      <trkpt lat="46.00397" lon="6.18974">
        <ele>562.51</ele>
        <time>2020-04-16T10:17:46Z</time>
      </trkpt>
      <trkpt lat="46.00391" lon="6.18999">
        <ele>562.99</ele>
        <time>2020-04-16T10:17:47Z</time>
      </trkpt>
      <trkpt lat="46.00385" lon="6.19028">
        <ele>563.95</ele>
        <time>2020-04-16T10:17:48Z</time>
      </trkpt>
      <trkpt lat="46.00331" lon="6.19292">
        <ele>569.72</ele>
        <time>2020-04-16T10:17:56Z</time>
      </trkpt>
      <trkpt lat="46.00288" lon="6.19587">
        <ele>570.68</ele>
        <time>2020-04-16T10:18:05Z</time>
      </trkpt>
      <trkpt lat="46.00281" lon="6.1977">
        <ele>570.68</ele>
        <time>2020-04-16T10:18:11Z</time>
      </trkpt>
      <trkpt lat="46.00276" lon="6.19799">
        <ele>570.68</ele>
        <time>2020-04-16T10:18:12Z</time>
      </trkpt>
      <trkpt lat="46.00266" lon="6.19827">
        <ele>570.68</ele>
        <time>2020-04-16T10:18:13Z</time>
      </trkpt>
      <trkpt lat="46.00213" lon="6.19969">
        <ele>571.64</ele>
        <time>2020-04-16T10:18:19Z</time>
      </trkpt>
      <trkpt lat="46.00195" lon="6.20017">
        <ele>572.12</ele>
        <time>2020-04-16T10:18:23Z</time>
      </trkpt>
      <trkpt lat="46.00193" lon="6.20022">
        <ele>572.12</ele>
        <time>2020-04-16T10:18:24Z</time>
      </trkpt>
      <trkpt lat="46.00192" lon="6.20024">
        <ele>572.12</ele>
        <time>2020-04-16T10:18:25Z</time>
      </trkpt>
      <trkpt lat="46.00178" lon="6.19998">
        <ele>572.12</ele>
        <time>2020-04-16T10:18:32Z</time>
      </trkpt>
      <trkpt lat="46.00178" lon="6.19996">
        <ele>575.49</ele>
        <time>2020-04-16T10:18:44Z</time>
      </trkpt>
      <trkpt lat="46.00178" lon="6.19996">
        <ele>575.49</ele>
        <time>2020-04-16T10:18:56Z</time>
      </trkpt>
      <trkpt lat="46.00178" lon="6.19996">
        <ele>575.49</ele>
        <time>2020-04-16T10:19:02Z</time>
      </trkpt>
      <trkpt lat="46.00178" lon="6.19998">
        <ele>575.97</ele>
        <time>2020-04-16T10:19:15Z</time>
      </trkpt>
    </trkseg>
  </trk>
</gpx>